Valley Peak, Santa Cruz Island Reserve, California Weather observations

Data are for 10 minute period ending at time listed.
 Day   Time   Solar   Ave.   Ave.  Ave.  Vector  Max.   Baro.   Total    
  of    of     Rad.   Air    Rel.  Wind   Wind   Wind  Press.  Precip.   
Year   Day            Temp.  Hum.  Speed  Dir.   Gust                    
2015   (PST)  Kw/m2    F      %     mph   deg.    mph    mb.     in.     
-------------------------------------------------------------------------
 240   16:10   0.40   86.5    41    5.0   354    10.7   962.7    0.00 
 240   16:20   0.37   86.5    40    4.7     5     7.1   962.7    0.00 
 240   16:30   0.33   87.8    36    4.6   328     9.6   962.6    0.00 
 240   16:40   0.30   91.1    30    5.0   291    10.3   962.6    0.00 
 240   16:50   0.26   94.0    27    4.4   285     7.7   962.6    0.00 
 240   17:00   0.23   94.4    28    4.1   280     8.1   962.6    0.00 
 240   17:10   0.20   92.9    27    5.8   327    10.1   962.5    0.00 
 240   17:20   0.17   90.8    29    6.3   327     9.4   962.4    0.00 
 240   17:30   0.14   90.0    28    6.9   323    12.3   962.3    0.00 
 240   17:40   0.11   89.7    28    6.5   326     9.7   962.2    0.00 
 240   17:50   0.08   90.2    26    5.6   315    12.2   962.3    0.00 
 240   18:00   0.06   89.6    26    6.8   321    10.1   962.2    0.00 
 240   18:10   0.03   89.3    25    5.2   328     7.7   962.2    0.00 
 240   18:20   0.01   88.1    26    6.9   346    10.3   962.1    0.00 
 240   18:30   0.00   86.1    27    9.0   351    15.6   962.1    0.00 
 240   18:40   0.00   84.9    27   10.3   351    15.0   962.0    0.00 
 240   18:50   0.00   84.0    28    9.4   353    14.3   961.9    0.00 
 240   19:00   0.00   83.6    28    8.2   350    12.9   961.8    0.00 
 240   19:10   0.00   84.2    26    8.1   335    16.1   961.9    0.00 
 240   19:20   0.00   84.5    24    8.0   326    14.2   962.0    0.00 
 240   19:30   0.00   85.1    23    8.1   314    14.7   962.1    0.00 
 240   19:40   0.00   85.3    22    9.8   308    21.2   962.1    0.00 
 240   19:50   0.00   85.7    21   11.2   289    20.2   962.2    0.00 
 240   20:00   0.00   85.4    22   10.3   279    21.4   962.3    0.00 
 240   20:10   0.00   84.7    22   10.1   280    17.8   962.4    0.00 
 240   20:20   0.00   84.7    22   11.2   296    25.5   962.5    0.00 
 240   20:30   0.00   85.1    22   11.2   321    22.6   962.4    0.00 
 240   20:40   0.00   85.0    22   11.2   339    25.9   962.4    0.00 
 240   20:50   0.00   84.7    23   13.2   339    23.9   962.4    0.00 
 240   21:00   0.00   84.6    23   14.0   354    27.6   962.3    0.00 
 240   21:10   0.00   83.4    25   15.6     7    26.2   962.3    0.00 
 240   21:20   0.00   83.6    26   16.0    12    24.9   962.3    0.00 
 240   21:30   0.00   82.9    27   14.8    23    23.7   962.3    0.00 
 240   21:40   0.00   83.1    26   11.9    14    19.1   962.3    0.00 
 240   21:50   0.00   83.0    26   12.5    17    21.7   962.2    0.00 
 240   22:00   0.00   82.7    26   12.4    11    21.3   962.1    0.00 
 240   22:10   0.00   83.1    24   12.7   360    24.8   962.1    0.00 
 240   22:20   0.00   82.6    26   12.7     6    20.2   962.2    0.00 
 240   22:30   0.00   82.6    25   11.8   351    23.9   962.2    0.00 
 240   22:40   0.00   82.3    26   11.2   356    18.7   962.2    0.00 
 240   22:50   0.00   83.1    24   10.8     1    20.4   962.2    0.00 
 240   23:00   0.00   83.1    24   11.2   352    20.5   962.3    0.00 
 240   23:10   0.00   83.7    24   11.1   351    25.6   962.3    0.00 
 240   23:20   0.00   84.2    24    8.3   339    20.5   962.4    0.00 
 240   23:30   0.00   84.5    24    6.4   326    14.8   962.5    0.00 
 240   23:40   0.00   84.1    24    7.2   341    15.7   962.5    0.00 
 240   23:50   0.00   84.0    24    6.7   310    11.7   962.6    0.00 
 241    0:00   0.00   84.6    24    7.7   318    13.4   962.7    0.00 
 241    0:10   0.00   84.7    24    6.6   309    14.0   962.6    0.00 
 241    0:20   0.00   84.6    24    6.8   300    17.6   962.6    0.00 
 241    0:30   0.00   84.3    24    6.5   315    14.0   962.5    0.00 
 241    0:40   0.00   83.9    25    7.1   311    12.2   962.5    0.00 
 241    0:50   0.00   84.0    25    7.2   315    13.5   962.5    0.00 
 241    1:00   0.00   84.1    25    8.0   330    14.0   962.3    0.00 
 241    1:10   0.00   83.9    24    8.1   335    13.7   962.3    0.00 
 241    1:20   0.00   83.1    25    5.6   308    13.4   962.3    0.00 
 241    1:30   0.00   83.1    26    4.3   352    13.5   962.3    0.00 
 241    1:40   0.00   82.9    26    8.0   332    18.2   962.2    0.00 
 241    1:50   0.00   82.4    27    4.6   298    11.5   962.3    0.00 
 241    2:00   0.00   82.1    27    3.0   246     6.3   962.3    0.00 
 241    2:10   0.00   81.7    27    3.1   274     7.6   962.3    0.00 
 241    2:20   0.00   81.6    28    5.7   284     9.0   962.3    0.00 
 241    2:30   0.00   81.1    29    7.1   307    12.6   962.3    0.00 
 241    2:40   0.00   81.4    28    6.4   310    11.2   962.2    0.00 
 241    2:50   0.00   80.4    30    4.3   343     6.6   962.3    0.00 
 241    3:00   0.00   79.0    32    5.8   335     9.9   962.3    0.00 
 241    3:10   0.00   79.8    30    6.8   314    11.9   962.3    0.00 
 241    3:20   0.00   79.2    32    4.7     0     9.3   962.3    0.00 
 241    3:30   0.00   78.0    34    4.3    14    10.0   962.3    0.00 
 241    3:40   0.00   76.6    36    6.1    18     9.4   962.2    0.00 
 241    3:50   0.00   76.0    36    8.2    13    10.9   962.1    0.00 
 241    4:00   0.00   75.4    38    9.2    26    12.1   962.1    0.00 
 241    4:10   0.00   76.7    35   11.2   357    20.7   962.1    0.00 
 241    4:20   0.00   77.7    33    9.6     4    14.9   962.1    0.00 
 241    4:30   0.00   78.7    31   10.2   356    18.0   962.1    0.00 
 241    4:40   0.00   78.3    32   10.1     7    15.9   962.0    0.00 
 241    4:50   0.00   78.1    32    7.9   359    14.6   962.1    0.00 
 241    5:00   0.00   78.5    32    4.2     4    13.1   962.3    0.00 
 241    5:10   0.00   77.6    34    3.6    14    10.5   962.4    0.00 
 241    5:20   0.00   75.5    40    8.4    28    13.1   962.4    0.00 
 241    5:30   0.00   72.2    49    9.7    28    14.2   962.5    0.00 
 241    5:40   0.00   71.9    49    8.1    15    11.2   962.6    0.00 
 241    5:50   0.01   72.3    48    7.3   353    11.7   962.8    0.00 
 241    6:00   0.06   74.6    42    6.1   332    13.2   962.9    0.00 
 241    6:10   0.08   73.7    46    5.2    22     8.0   963.0    0.00 
 241    6:20   0.11   73.4    47    7.0    32    10.4   963.0    0.00 
 241    6:30   0.14   73.7    47    8.0    26    10.1   963.1    0.00 
 241    6:40   0.18   74.5    45    7.1    24    10.5   963.2    0.00 
 241    6:50   0.21   74.9    46    6.6    36     9.1   963.3    0.00 
 241    7:00   0.24   75.0    46    7.4    32    11.1   963.4    0.00 
 241    7:10   0.28   75.6    45    6.5    31     8.8   963.4    0.00 
 241    7:20   0.32   76.4    43    5.3    21     8.8   963.5    0.00 
 241    7:30   0.35   77.3    42    4.4    30     7.7   963.5    0.00 
 241    7:40   0.38   78.7    41    3.2    46     5.5   963.6    0.00 
 241    7:50   0.42   79.5    46    1.8   170     4.8   963.8    0.00 
 241    8:00   0.45   78.2    54    2.3   176     5.2   963.8    0.00 
 241    8:10   0.48   77.6    56    3.1   136     5.7   963.9    0.00 
 241    8:20   0.51   78.1    54    1.8   159     5.8   964.0    0.00 
 241    8:30   0.54   78.7    53    2.7   170     5.3   964.1    0.00 
 241    8:40   0.57   80.0    51    2.3   226     5.8   964.1    0.00 
 241    8:50   0.60   81.2    47    2.1   314     5.3   964.2    0.00 
 241    9:00   0.63   85.0    42    2.3   334     7.8   964.3    0.00 
 241    9:10   0.66   85.3    43    2.9    47     8.4   964.5    0.00 
 241    9:20   0.69   86.6    38    5.0    41    10.0   964.6    0.00 
 241    9:30   0.71   84.7    37    4.6    31    12.1   964.7    0.00 
 241    9:40   0.73   85.6    35    5.4    37    10.3   964.8    0.00 
 241    9:50   0.76   85.9    35    6.3    41     9.9   964.9    0.00 
 241   10:00   0.78   85.0    36    5.4    35     9.9   965.0    0.00 
 241   10:10   0.80   87.6    37    3.4    59     8.8   965.1    0.00 
 241   10:20   0.81   89.4    33    3.7    58     7.3   965.1    0.00 
 241   10:30   0.83   89.2    40    2.8   112     6.2   965.2    0.00 
 241   10:40   0.84   87.6    38    3.2    45     7.3   965.2    0.00 
 241   10:50   0.86   90.2    32    5.5    44    11.0   965.1    0.00 
 241   11:00   0.87   87.6    34    8.0    39    12.6   965.1    0.00 
 241   11:10   0.87   86.8    35    5.3    44     9.5   965.0    0.00 
 241   11:20   0.88   88.5    33    3.5    52     7.7   965.0    0.00 
 241   11:30   0.89   90.9    31    3.1    58     6.7   965.0    0.00 
 241   11:40   0.89   93.2    30    2.8    62     6.2   964.9    0.00 
 241   11:50   0.90   93.7    32    3.2    70     6.3   964.7    0.00 
 241   12:00   0.90   93.1    32    2.7    66     6.2   964.7    0.00 
 241   12:10   0.89   93.8    28    2.6    54     8.0   964.6    0.00 
 241   12:20   0.89   93.8    28    2.9    58     6.0   964.6    0.00 
 241   12:30   0.88   94.2    29    3.2    57     7.1   964.5    0.00 
 241   12:40   0.88   94.7    28    3.5    58     7.5   964.5    0.00 
 241   12:50   0.87   94.5    30    2.9    81     6.6   964.4    0.00 
 241   13:00   0.86   94.8    30    2.6    78     5.5   964.3    0.00 
 241   13:10   0.84   94.2    34    3.0   124     6.1   964.3    0.00 
 241   13:20   0.83   94.3    34    2.3    97     6.4   964.3    0.00 
 241   13:30   0.82   94.5    32    2.4    79     5.7   964.2    0.00 
 241   13:40   0.80   95.1    32    2.6   109     6.9   964.1    0.00 
 241   13:50   0.78   95.3    33    3.3   162     7.2   964.0    0.00 
 241   14:00   0.77   92.4    35    3.2   192     7.4   964.0    0.00 
 241   14:10   0.74   91.0    36    2.8   181     6.9   964.0    0.00 
 241   14:20   0.72   92.3    34    3.0   207     7.2   963.9    0.00 
 241   14:30   0.70   91.7    33    4.5   242     8.3   963.9    0.00 
 241   14:40   0.67   91.1    33    5.9   232    12.6   963.8    0.00 
 241   14:50   0.64   90.4    33    6.3   216    14.7   963.7    0.00 
 241   15:00   0.61   91.7    32    4.8   225    10.5   963.6    0.00 
 241   15:10   0.58   91.4    32    5.8   215    12.6   963.5    0.00 
 241   15:20   0.56   92.1    31    4.4   244     9.7   963.5    0.00 
 241   15:30   0.53   93.1    30    9.1   241    15.9   963.3    0.00 
 241   15:40   0.49   90.7    32   11.6   238    16.5   963.3    0.00 
 241   15:50   0.46   89.6    34   10.6   242    15.6   963.3    0.00 
 241   16:00   0.43   88.9    35   11.3   244    15.0   963.2    0.00 

Return to Valley Peak, Santa Cruz Island Reserve graphs page.


Western Regional Climate Center,wrcc@dri.edu